CheckWX is a tool to help pilots better visualize weather data.  It is not intended as a substitute for an official pre-flight weather briefing.

09:48:21 UTC

KHWY METAR
Warrenton-Fauquier Airport
Warrenton, Virginia, USA
Current

33 mins ago

KHWY 200915Z AUTO 00000KT 10SM SCT037 OVC043 01/M04 A3051 RMK AO2 T00101042
Observed
Feb-20 @ 09:15 UTC
Visibility
16,093 meters
Flight Rules
VFR
Cloud Levels
  • Scattered at 3,700' AGL
  • Overcast at 4,300' AGL
Temperature
C / 34°F
Dewpoint
-4°C / 25°F
Humidity
70%
Altimeter
30.51" Hg
Pressure
1033.21 hPa
Previous

53 mins ago

KHWY 200855Z AUTO 00000KT 10SM BKN048 BKN065 OVC075 01/M05 A3051 RMK AO2 T00111055
Observed
Feb-20 @ 08:55 UTC
Visibility
16,093 meters
Flight Rules
VFR
Cloud Levels
  • Broken at 4,800' AGL
  • Broken at 6,500' AGL
  • Overcast at 7,500' AGL
Temperature
C / 34°F
Dewpoint
-6°C / 21°F
Humidity
60%
Altimeter
30.51" Hg
Pressure
1033.21 hPa
Previous

1 hour ago

KHWY 200835Z AUTO 00000KT 10SM SCT065 BKN075 OVC085 01/M04 A3052 RMK AO2 T00111045
Observed
Feb-20 @ 08:35 UTC
Visibility
16,093 meters
Flight Rules
VFR
Cloud Levels
  • Scattered at 6,500' AGL
  • Broken at 7,500' AGL
  • Overcast at 8,500' AGL
Temperature
C / 34°F
Dewpoint
-5°C / 23°F
Humidity
65%
Altimeter
30.52" Hg
Pressure
1033.51 hPa